Weather at Dodge County Airport

Public forecast

Using degrees Fahrenheit for public forecast. Weather courtesy of forecast.io.

Current aviation weather report (METAR) for Dodge County Airport

Report is more than 2 hours old.

Retrieved 2021/10/24 04:55 UTC (4 hours ago):

KUNU 240455Z AUTO 00000KT 10SM CLR 02/01 A3005 RMK AO2 T00230007

Closest aviation forecast (TAF) to Dodge County Airport

Forecast is more than 6 hours old.

Closest forecast is Waukesha County Airport, 30.8 nm (57.1 km) SE. Retrieved 2021-10-24 00:22 UTC (9 hours ago):

TAF KUES 232320Z 2400/2424 01003KT P6SM FEW180 FM241500 07007KT P6SM BKN090 FM242000 07011G20KT P6SM OVC030 FM242300 07014G24KT P6SM -SHRA OVC035